Khaskovo, Bulgaria
Current Conditions -  °F | °C
As of 9:00 AM on Saturday 29 Nov 2014 (Local Time) from LBPD Reporting Station
Haze Haze  
Wind Chill: 34°   Ceiling: Unl
Heat Index: 34°   Visibility: 0.93mi
Dew Point: 34°   Wind: 2mph
Humidity: 100%   Direction: 260°W
Pressure: 30.24"   Gusts: NA
Location:  41.94°N, 25.57°E
Report Text: LBPD 290600Z 26001MPS 1500 BR FEW065 SCT080 01/01 Q1024 BECMG 3000 BR
Loading
Personal Weather Stations






























Interactive Weather Map New forecast layout! Learn more

10-Day Weather Forecast

Advertisements
Track Severe Weather on mobile